| time (UTC) | temp C | wind direction | speed KPH | gust KPH | rain 1hr cm | rain 24hr cm | rain mn cm | humidity % | barometer mb |
| 20260831151534 | 21 | 277 | 0.0 | 0.0 | 0.00 | 0.05 | 0.00 | 48 | 1010.2 |
| 20260831150030 | 20 | 277 | 0.0 | 0.0 | 0.00 | 0.05 | 0.00 | 51 | 1010.4 |
| 20260831144545 | 18 | 277 | 0.0 | 0.0 | 0.00 | 0.05 | 0.00 | 55 | 1010.5 |
| 20260831143035 | 17 | 280 | 0.0 | 0.0 | 0.00 | 0.05 | 0.00 | 61 | 1010.5 |
| 20260831141529 | 16 | 280 | 0.0 | 0.0 | 0.00 | 0.05 | 0.00 | 68 | 1010.4 |
| 20260831140027 | 16 | 280 | 0.0 | 0.0 | 0.00 | 0.05 | 0.00 | 69 | 1010.2 |
| 20260831134524 | 15 | 280 | 0.0 | 0.0 | 0.00 | 0.05 | 0.00 | 69 | 1009.9 |
| 20260831133023 | 15 | 280 | 0.0 | 0.0 | 0.00 | 0.05 | 0.00 | 69 | 1009.8 |
| 20260831131521 | 14 | 280 | 0.0 | 0.0 | 0.00 | 0.05 | 0.00 | 68 | 1009.5 |
| 20260831130022 | 14 | 280 | 0.0 | 0.0 | 0.00 | 0.05 | 0.00 | 69 | 1009.2 |
| 20260831124517 | 14 | 280 | 0.0 | 0.0 | 0.00 | 0.05 | 0.00 | 70 | 1009.1 |
| 20260831123016 | 14 | 280 | 0.0 | 0.0 | 0.00 | 0.05 | 0.00 | 69 | 1008.8 |
| 20260831121524 | 13 | 280 | 0.0 | 0.0 | 0.00 | 0.05 | 0.00 | 69 | 1008.7 |
| 20260831120019 | 13 | 280 | 0.0 | 0.0 | 0.00 | 0.05 | 0.00 | 69 | 1008.5 |
| 20260831114512 | 13 | 280 | 0.0 | 0.0 | 0.00 | 0.05 | 0.00 | 71 | 1008.4 |
| 20260831113012 | 13 | 280 | 0.0 | 0.0 | 0.00 | 0.05 | 0.00 | 72 | 1008.5 |
| 20260831111510 | 13 | 280 | 0.0 | 0.0 | 0.00 | 0.05 | 0.00 | 72 | 1008.3 |
| 20260831110009 | 14 | 280 | 0.0 | 0.0 | 0.00 | 0.05 | 0.00 | 71 | 1008.3 |
| 20260831104510 | 14 | 280 | 0.0 | 0.0 | 0.00 | 0.05 | 0.00 | 72 | 1008.2 |
| 20260831103004 | 15 | 280 | 0.0 | 0.0 | 0.00 | 0.05 | 0.00 | 72 | 1008.1 |
| 20260831101502 | 15 | 280 | 0.0 | 0.0 | 0.00 | 0.05 | 0.00 | 73 | 1008.2 |
| 20260831100106 | 15 | 280 | 0.0 | 0.0 | 0.00 | 0.05 | 0.00 | 71 | 1008.1 |
| 20260831094558 | 15 | 280 | 0.0 | 0.0 | 0.00 | 0.05 | 0.00 | 70 | 1007.9 |
| 20260831093155 | 15 | 280 | 0.0 | 0.0 | 0.00 | 0.05 | 0.00 | 70 | 1007.7 |
| 20260831091554 | 16 | 280 | 0.0 | 0.0 | 0.00 | 0.05 | 0.00 | 69 | 1007.6 |
| 20260831090052 | 16 | 280 | 0.0 | 0.0 | 0.00 | 0.05 | 0.00 | 68 | 1007.6 |
| 20260831084559 | 16 | 280 | 0.0 | 0.0 | 0.00 | 0.05 | 0.00 | 68 | 1007.5 |
| 20260831083050 | 16 | 280 | 0.0 | 0.0 | 0.00 | 0.05 | 0.00 | 68 | 1007.7 |
| 20260831081605 | 17 | 216 | 0.0 | 0.0 | 0.00 | 0.05 | 0.00 | 69 | 1007.7 |
| 20260831080042 | 17 | 216 | 0.0 | 0.0 | 0.00 | 0.05 | 0.00 | 68 | 1007.8 |
| 20260831074544 | 17 | 192 | 0.0 | 0.0 | 0.00 | 0.05 | 0.00 | 67 | 1007.9 |
| 20260831073101 | 18 | 119 | 0.0 | 0.0 | 0.00 | 0.05 | 0.00 | 66 | 1008.2 |
| 20260831071532 | 18 | 119 | 0.0 | 0.0 | 0.00 | 0.05 | 0.00 | 64 | 1008.4 |
| 20260831070033 | 18 | 119 | 0.0 | 0.0 | 0.00 | 0.05 | 0.00 | 61 | 1008.4 |
| 20260831064534 | 20 | 123 | 0.0 | 0.0 | 0.00 | 0.05 | 0.00 | 58 | 1008.4 |
| 20260831063023 | 20 | 122 | 0.0 | 0.0 | 0.00 | 0.05 | 0.00 | 54 | 1008.5 |
| 20260831061530 | 20 | 122 | 0.0 | 17.7 | 0.00 | 0.05 | 0.00 | 47 | 1008.6 |
| 20260831060016 | 20 | 183 | 1.6 | 8.0 | 0.00 | 0.05 | 0.00 | 45 | 1008.5 |
| 20260831054515 | 20 | 240 | 0.0 | 0.0 | 0.00 | 0.05 | 0.05 | 48 | 1008.6 |
| 20260831053021 | 20 | 280 | 0.0 | 22.5 | 0.00 | 0.05 | 0.05 | 48 | 1008.9 |
| 20260831051514 | 20 | 245 | 3.2 | 22.5 | 0.00 | 0.05 | 0.05 | 50 | 1008.8 |
| 20260831050033 | 18 | 236 | 0.0 | 4.8 | 0.00 | 0.05 | 0.05 | 58 | 1009.5 |
| 20260831044513 | 17 | 248 | 0.0 | 0.0 | 0.00 | 0.05 | 0.05 | 71 | 1009.7 |
| 20260831043013 | 16 | 215 | 0.0 | 0.0 | 0.00 | 0.05 | 0.05 | 72 | 1009.4 |
| 20260831041507 | 16 | 80 | 0.0 | 0.0 | 0.00 | 0.05 | 0.05 | 73 | 1009.0 |
| 20260831040018 | 16 | 80 | 0.0 | 0.0 | 0.00 | 0.05 | 0.05 | 76 | 1008.7 |
| 20260831034506 | 16 | 80 | 0.0 | 0.0 | 0.00 | 0.05 | 0.05 | 75 | 1008.5 |
| 20260831033005 | 16 | 80 | 0.0 | 0.0 | 0.00 | 0.05 | 0.05 | 75 | 1008.6 |
| 20260831030104 | 17 | 80 | 0.0 | 0.0 | 0.00 | 0.05 | 0.05 | 73 | 1007.9 |
| 20260831024559 | 17 | 80 | 0.0 | 0.0 | 0.00 | 0.05 | 0.05 | 70 | 1008.1 |
| 20260831023057 | 18 | 80 | 0.0 | 0.0 | 0.00 | 0.05 | 0.05 | 67 | 1007.9 |
| 20260831021558 | 19 | 80 | 0.0 | 0.0 | 0.00 | 0.05 | 0.05 | 66 | 1007.7 |
| 20260831020054 | 20 | 80 | 0.0 | 0.0 | 0.00 | 0.05 | 0.05 | 63 | 1007.5 |
| 20260831014554 | 20 | 80 | 0.0 | 0.0 | 0.00 | 0.05 | 0.05 | 61 | 1007.4 |
| 20260831013055 | 21 | 80 | 0.0 | 0.0 | 0.00 | 0.05 | 0.05 | 59 | 1007.1 |
| 20260831011552 | 21 | 80 | 0.0 | 0.0 | 0.00 | 0.05 | 0.05 | 58 | 1007.0 |
| 20260831010055 | 22 | 80 | 0.0 | 0.0 | 0.00 | 0.05 | 0.05 | 55 | 1007.0 |
| 20260831004552 | 22 | 80 | 0.0 | 0.0 | 0.00 | 0.05 | 0.05 | 54 | 1007.0 |
| 20260831003052 | 22 | 80 | 0.0 | 0.0 | 0.00 | 0.05 | 0.05 | 52 | 1007.2 |
| 20260831001551 | 22 | 78 | 0.0 | 0.0 | 0.00 | 0.05 | 0.05 | 51 | 1007.1 |
| 20260831000058 | 22 | 74 | 0.0 | 3.2 | 0.00 | 0.05 | 0.05 | 51 | 1007.0 |
| 20260830234555 | 22 | 65 | 0.0 | 3.2 | 0.00 | 0.05 | 0.05 | 50 | 1007.1 |
| 20260830233059 | 22 | 136 | 0.0 | 1.6 | 0.00 | 0.05 | 0.05 | 52 | 1006.9 |
| 20260830231549 | 22 | 116 | 0.0 | 0.0 | 0.00 | 0.05 | 0.05 | 50 | 1006.5 |
| 20260830230048 | 22 | 69 | 0.0 | 0.0 | 0.00 | 0.05 | 0.05 | 51 | 1006.4 |
| 20260830224548 | 22 | 93 | 0.0 | 0.0 | 0.00 | 0.05 | 0.05 | 50 | 1006.5 |
| 20260830223050 | 22 | 93 | 0.0 | 0.0 | 0.00 | 0.05 | 0.05 | 50 | 1006.7 |
| 20260830221550 | 22 | 193 | 0.0 | 0.0 | 0.00 | 0.05 | 0.05 | 46 | 1006.9 |
| 20260830220059 | 22 | 209 | 0.0 | 16.1 | 0.00 | 0.05 | 0.05 | 44 | 1007.1 |
| 20260830214547 | 20 | 281 | 8.0 | 20.9 | 0.00 | 0.08 | 0.05 | 49 | 1007.1 |
| 20260830213046 | 20 | 250 | 19.3 | 37.0 | 0.05 | 0.08 | 0.05 | 51 | 1007.1 |
| 20260830211549 | 19 | 239 | 3.2 | 25.7 | 0.05 | 0.08 | 0.05 | 55 | 1007.2 |
| 20260830210044 | 18 | 257 | 4.8 | 19.3 | 0.05 | 0.08 | 0.05 | 60 | 1007.4 |
| 20260830204554 | 19 | 267 | 8.0 | 24.1 | 0.05 | 0.08 | 0.05 | 61 | 1007.1 |
| 20260830203042 | 23 | 293 | 9.7 | 40.2 | 0.00 | 0.03 | 0.00 | 41 | 1007.2 |
| 20260830201548 | 26 | 288 | 3.2 | 17.7 | 0.00 | 0.03 | 0.00 | 42 | 1006.3 |
| 20260830200137 | 27 | 292 | 3.2 | 12.9 | 0.00 | 0.03 | 0.00 | 35 | 1005.7 |
| 20260830194540 | 28 | 263 | 0.0 | 6.4 | 0.00 | 0.03 | 0.00 | 36 | 1004.7 |
| 20260830193035 | 28 | 95 | 0.0 | 6.4 | 0.00 | 0.03 | 0.00 | 35 | 1004.3 |
| 20260830191612 | 27 | 134 | 0.0 | 8.0 | 0.00 | 0.03 | 0.00 | 35 | 1004.2 |
| 20260830190037 | 27 | 84 | 0.0 | 4.8 | 0.00 | 0.03 | 0.00 | 36 | 1004.3 |
| 20260830184536 | 27 | 120 | 1.6 | 16.1 | 0.00 | 0.03 | 0.00 | 36 | 1004.3 |
| 20260830183033 | 27 | 53 | 0.0 | 12.9 | 0.00 | 0.03 | 0.00 | 36 | 1004.5 |
| 20260830181530 | 27 | 92 | 0.0 | 16.1 | 0.00 | 0.03 | 0.00 | 36 | 1004.7 |
| 20260830180035 | 27 | 142 | 0.0 | 6.4 | 0.00 | 0.03 | 0.00 | 37 | 1004.9 |
| 20260830174531 | 27 | 99 | 0.0 | 11.3 | 0.00 | 0.03 | 0.00 | 35 | 1005.0 |
| 20260830173024 | 27 | 79 | 1.6 | 12.9 | 0.00 | 0.03 | 0.00 | 39 | 1005.2 |
| 20260830171523 | 26 | 101 | 0.0 | 11.3 | 0.00 | 0.03 | 0.00 | 39 | 1005.4 |
| 20260830170021 | 26 | 124 | 0.0 | 6.4 | 0.00 | 0.03 | 0.00 | 39 | 1005.4 |
| 20260830164517 | 26 | 116 | 0.0 | 3.2 | 0.00 | 0.03 | 0.00 | 44 | 1005.6 |
| 20260830163032 | 25 | 126 | 0.0 | 3.2 | 0.00 | 0.03 | 0.00 | 44 | 1005.5 |
| 20260830161513 | 24 | 223 | 0.0 | 8.0 | 0.00 | 0.03 | 0.00 | 42 | 1005.6 |
| 20260830160007 | 22 | 315 | 0.0 | 0.0 | 0.00 | 0.03 | 0.00 | 47 | 1005.7 |
| 20260830154502 | 21 | 308 | 0.0 | 0.0 | 0.00 | 0.03 | 0.00 | 49 | 1005.9 |
| 20260830153101 | 20 | 54 | 0.0 | 0.0 | 0.00 | 0.03 | 0.00 | 54 | 1005.8 |